ITY425 LIML-LIBR
Flight info
| Callsign | ITY425 |
|---|---|
| Flight time | 1h 22m |
| Altitude | 35000 |
| Route | LOGDI DCT LURUT DCT ANC DCT GERBU DCT UTENO DCT OTRET DCT PES DCT DIVKU DCT LUXIL ROBOT |
| Aircraft | A320/M-SDE3FGHIRWY/LB1 |
Departure
| Time | 2026-04-28 17:52 |
|---|---|
| Airport | Milano Linate Airport (LIML) |
Arrival
| Time | 2026-04-28 19:15 |
|---|---|
| Airport | Brindisi Airport (LIBR) |
| Time | Latitude | Longitude | Altitude | Speed | Heading |
|---|---|---|---|---|---|
| 2026-04-28 17:20 | 45.45974 | 9.27904 | 360 ft | 0 kts | 360° |
| 2026-04-28 17:41 | 45.45967 | 9.27904 | 362 ft | 4 kts | 360° |
| 2026-04-28 17:42 | 45.45940 | 9.27903 | 360 ft | 2 kts | 360° |
| 2026-04-28 17:42 | 45.45919 | 9.27901 | 360 ft | 4 kts | 33° |
| 2026-04-28 17:42 | 45.45907 | 9.27874 | 363 ft | 4 kts | 88° |
| 2026-04-28 17:42 | 45.45907 | 9.27875 | 363 ft | 3 kts | 90° |
| 2026-04-28 17:43 | 45.45907 | 9.27905 | 365 ft | 0 kts | 90° |
| 2026-04-28 17:45 | 45.45907 | 9.27917 | 365 ft | 5 kts | 90° |
| 2026-04-28 17:45 | 45.45898 | 9.27964 | 360 ft | 4 kts | 125° |
| 2026-04-28 17:46 | 45.45850 | 9.27984 | 360 ft | 8 kts | 179° |
| 2026-04-28 17:46 | 45.45798 | 9.27983 | 360 ft | 7 kts | 181° |
| 2026-04-28 17:46 | 45.45757 | 9.27982 | 362 ft | 5 kts | 181° |
| 2026-04-28 17:46 | 45.45725 | 9.27981 | 360 ft | 4 kts | 181° |
| 2026-04-28 17:47 | 45.45662 | 9.27980 | 360 ft | 17 kts | 180° |
| 2026-04-28 17:47 | 45.45508 | 9.27978 | 361 ft | 25 kts | 181° |
| 2026-04-28 17:47 | 45.45341 | 9.27939 | 362 ft | 25 kts | 204° |
| 2026-04-28 17:47 | 45.45235 | 9.27875 | 360 ft | 25 kts | 194° |
| 2026-04-28 17:48 | 45.44998 | 9.27889 | 360 ft | 26 kts | 175° |
| 2026-04-28 17:48 | 45.44819 | 9.27942 | 361 ft | 27 kts | 174° |
| 2026-04-28 17:48 | 45.44632 | 9.27961 | 362 ft | 27 kts | 176° |
| 2026-04-28 17:48 | 45.44441 | 9.27981 | 360 ft | 28 kts | 175° |
| 2026-04-28 17:49 | 45.44245 | 9.28002 | 363 ft | 28 kts | 176° |
| 2026-04-28 17:49 | 45.44046 | 9.28022 | 360 ft | 29 kts | 176° |
| 2026-04-28 17:49 | 45.43861 | 9.28044 | 360 ft | 20 kts | 175° |
| 2026-04-28 17:49 | 45.43718 | 9.28059 | 364 ft | 21 kts | 176° |
| 2026-04-28 17:50 | 45.43566 | 9.28075 | 362 ft | 22 kts | 176° |
| 2026-04-28 17:50 | 45.43458 | 9.28043 | 363 ft | 16 kts | 232° |
| 2026-04-28 17:50 | 45.43442 | 9.27883 | 362 ft | 15 kts | 284° |
| 2026-04-28 17:50 | 45.43521 | 9.27813 | 368 ft | 13 kts | 351° |
| 2026-04-28 17:51 | 45.43610 | 9.27803 | 364 ft | 12 kts | 356° |
| 2026-04-28 17:51 | 45.43701 | 9.27793 | 362 ft | 23 kts | 356° |
| 2026-04-28 17:51 | 45.44149 | 9.27745 | 358 ft | 101 kts | 355° |
| 2026-04-28 17:51 | 45.45077 | 9.27644 | 361 ft | 161 kts | 355° |
| 2026-04-28 17:52 | 45.46240 | 9.27482 | 838 ft | 166 kts | 354° |
| 2026-04-28 17:52 | 45.47391 | 9.27420 | 1542 ft | 165 kts | 5° |
| 2026-04-28 17:52 | 45.49836 | 9.27869 | 2577 ft | 187 kts | 8° |
| 2026-04-28 17:53 | 45.51156 | 9.28170 | 3176 ft | 190 kts | 18° |
| 2026-04-28 17:53 | 45.52341 | 9.29003 | 3758 ft | 192 kts | 38° |
| 2026-04-28 17:53 | 45.53262 | 9.30384 | 4313 ft | 194 kts | 59° |
| 2026-04-28 17:53 | 45.53804 | 9.32163 | 4788 ft | 203 kts | 79° |
| 2026-04-28 17:54 | 45.53838 | 9.34270 | 5011 ft | 223 kts | 103° |
| 2026-04-28 17:54 | 45.53208 | 9.36364 | 5316 ft | 241 kts | 129° |
| 2026-04-28 17:54 | 45.51930 | 9.37923 | 5919 ft | 255 kts | 154° |
| 2026-04-28 17:54 | 45.50198 | 9.38890 | 6469 ft | 269 kts | 161° |
| 2026-04-28 17:55 | 45.48503 | 9.40083 | 7214 ft | 276 kts | 142° |
| 2026-04-28 17:55 | 45.47252 | 9.42137 | 7994 ft | 282 kts | 126° |
| 2026-04-28 17:55 | 45.46144 | 9.44466 | 8803 ft | 286 kts | 125° |
| 2026-04-28 17:55 | 45.45029 | 9.46834 | 9600 ft | 290 kts | 125° |
| 2026-04-28 17:56 | 45.43894 | 9.49248 | 10348 ft | 295 kts | 125° |
| 2026-04-28 17:56 | 45.42705 | 9.51772 | 10627 ft | 318 kts | 125° |
| 2026-04-28 17:56 | 45.41428 | 9.54475 | 10976 ft | 335 kts | 126° |
| 2026-04-28 17:56 | 45.40110 | 9.57256 | 11616 ft | 341 kts | 126° |
| 2026-04-28 17:57 | 45.38757 | 9.60073 | 12310 ft | 346 kts | 129° |
| 2026-04-28 17:57 | 45.37125 | 9.62597 | 12983 ft | 348 kts | 141° |
| 2026-04-28 17:57 | 45.35151 | 9.64618 | 13670 ft | 349 kts | 151° |
| 2026-04-28 17:57 | 45.33088 | 9.66407 | 14292 ft | 354 kts | 151° |
| 2026-04-28 17:58 | 45.30974 | 9.68247 | 14865 ft | 358 kts | 151° |
| 2026-04-28 17:58 | 45.28808 | 9.70132 | 15460 ft | 363 kts | 151° |
| 2026-04-28 17:58 | 45.26639 | 9.72019 | 16024 ft | 368 kts | 151° |
| 2026-04-28 17:58 | 45.24435 | 9.73934 | 16595 ft | 372 kts | 152° |
| 2026-04-28 17:59 | 45.22939 | 9.75234 | 16975 ft | 375 kts | 152° |
| 2026-04-28 17:59 | 45.19962 | 9.77818 | 17737 ft | 381 kts | 152° |
| 2026-04-28 17:59 | 45.17682 | 9.79797 | 18305 ft | 385 kts | 152° |
| 2026-04-28 17:59 | 45.15382 | 9.81790 | 18800 ft | 389 kts | 152° |
| 2026-04-28 18:00 | 45.13843 | 9.83122 | 19169 ft | 390 kts | 152° |
| 2026-04-28 18:00 | 45.11510 | 9.85142 | 19714 ft | 393 kts | 152° |
| 2026-04-28 18:00 | 45.09169 | 9.87168 | 20262 ft | 395 kts | 152° |
| 2026-04-28 18:00 | 45.06812 | 9.89207 | 20801 ft | 398 kts | 152° |
| 2026-04-28 18:01 | 45.04432 | 9.91263 | 21343 ft | 400 kts | 152° |
| 2026-04-28 18:01 | 45.02065 | 9.93299 | 21880 ft | 403 kts | 152° |
| 2026-04-28 18:01 | 44.99656 | 9.95365 | 22398 ft | 406 kts | 152° |
| 2026-04-28 18:01 | 44.97231 | 9.97445 | 22928 ft | 409 kts | 152° |
| 2026-04-28 18:02 | 44.94782 | 9.99548 | 23445 ft | 412 kts | 152° |
| 2026-04-28 18:02 | 44.92325 | 10.01657 | 23883 ft | 414 kts | 152° |
| 2026-04-28 18:02 | 44.89876 | 10.03755 | 24282 ft | 417 kts | 152° |
| 2026-04-28 18:02 | 44.87386 | 10.05886 | 24679 ft | 419 kts | 152° |
| 2026-04-28 18:03 | 44.84880 | 10.08027 | 25075 ft | 422 kts | 152° |
| 2026-04-28 18:03 | 44.82350 | 10.10187 | 25447 ft | 425 kts | 152° |
| 2026-04-28 18:03 | 44.79821 | 10.12345 | 25813 ft | 427 kts | 152° |
| 2026-04-28 18:03 | 44.77261 | 10.14531 | 26184 ft | 430 kts | 152° |
| 2026-04-28 18:04 | 44.74775 | 10.16911 | 26537 ft | 435 kts | 143° |
| 2026-04-28 18:04 | 44.72606 | 10.19862 | 26873 ft | 441 kts | 132° |
| 2026-04-28 18:04 | 44.70806 | 10.23383 | 27218 ft | 446 kts | 121° |
| 2026-04-28 18:04 | 44.69471 | 10.27357 | 27559 ft | 450 kts | 110° |
| 2026-04-28 18:05 | 44.68489 | 10.31539 | 27978 ft | 453 kts | 109° |
| 2026-04-28 18:05 | 44.67833 | 10.34340 | 28219 ft | 454 kts | 109° |
| 2026-04-28 18:05 | 44.66486 | 10.40000 | 28669 ft | 457 kts | 109° |
| 2026-04-28 18:05 | 44.65473 | 10.44203 | 28993 ft | 459 kts | 109° |
| 2026-04-28 18:06 | 44.64445 | 10.48466 | 29328 ft | 461 kts | 109° |
| 2026-04-28 18:06 | 44.63412 | 10.52748 | 29639 ft | 463 kts | 109° |
| 2026-04-28 18:06 | 44.62374 | 10.57047 | 29949 ft | 466 kts | 109° |
| 2026-04-28 18:06 | 44.61331 | 10.61366 | 30241 ft | 468 kts | 109° |
| 2026-04-28 18:07 | 44.60279 | 10.65733 | 30476 ft | 470 kts | 109° |
| 2026-04-28 18:07 | 44.59230 | 10.70091 | 30707 ft | 472 kts | 109° |
| 2026-04-28 18:07 | 44.58175 | 10.74467 | 30931 ft | 474 kts | 109° |
| 2026-04-28 18:07 | 44.57127 | 10.78802 | 31150 ft | 476 kts | 109° |
| 2026-04-28 18:08 | 44.56054 | 10.83226 | 31377 ft | 478 kts | 109° |
| 2026-04-28 18:08 | 44.54979 | 10.87649 | 31625 ft | 479 kts | 109° |
| 2026-04-28 18:08 | 44.53901 | 10.92069 | 31913 ft | 479 kts | 109° |
| 2026-04-28 18:08 | 44.52820 | 10.96486 | 32207 ft | 479 kts | 110° |
| 2026-04-28 18:09 | 44.51495 | 11.00779 | 32499 ft | 478 kts | 118° |
| 2026-04-28 18:09 | 44.49988 | 11.04934 | 32763 ft | 478 kts | 118° |
| 2026-04-28 18:09 | 44.48501 | 11.09035 | 33039 ft | 478 kts | 118° |
| 2026-04-28 18:09 | 44.46989 | 11.13204 | 33329 ft | 478 kts | 118° |
| 2026-04-28 18:10 | 44.45486 | 11.17344 | 33614 ft | 478 kts | 118° |
| 2026-04-28 18:10 | 44.43971 | 11.21510 | 33898 ft | 478 kts | 118° |
| 2026-04-28 18:10 | 44.42464 | 11.25653 | 34085 ft | 477 kts | 117° |
| 2026-04-28 18:10 | 44.40957 | 11.29802 | 34365 ft | 476 kts | 117° |
| 2026-04-28 18:11 | 44.39478 | 11.33877 | 34631 ft | 475 kts | 117° |
| 2026-04-28 18:11 | 44.37974 | 11.38013 | 34886 ft | 475 kts | 117° |
| 2026-04-28 18:11 | 44.36476 | 11.42119 | 35019 ft | 474 kts | 117° |
| 2026-04-28 18:11 | 44.34978 | 11.46212 | 35048 ft | 469 kts | 117° |
| 2026-04-28 18:12 | 44.31999 | 11.54308 | 35073 ft | 466 kts | 117° |
| 2026-04-28 18:12 | 44.29046 | 11.62340 | 35079 ft | 466 kts | 117° |
| 2026-04-28 18:13 | 44.26081 | 11.70391 | 35061 ft | 466 kts | 118° |
| 2026-04-28 18:13 | 44.23114 | 11.78401 | 35037 ft | 467 kts | 118° |
| 2026-04-28 18:14 | 44.20124 | 11.86442 | 35010 ft | 467 kts | 118° |
| 2026-04-28 18:14 | 44.17131 | 11.94476 | 34999 ft | 467 kts | 118° |
| 2026-04-28 18:15 | 44.14146 | 12.02464 | 34995 ft | 467 kts | 118° |
| 2026-04-28 18:15 | 44.11144 | 12.10489 | 35003 ft | 467 kts | 118° |
| 2026-04-28 18:16 | 44.08132 | 12.18514 | 35005 ft | 466 kts | 118° |
| 2026-04-28 18:16 | 44.05117 | 12.26511 | 35032 ft | 466 kts | 118° |
| 2026-04-28 18:17 | 44.02115 | 12.34462 | 35009 ft | 466 kts | 118° |
| 2026-04-28 18:17 | 43.99097 | 12.42447 | 35004 ft | 466 kts | 118° |
| 2026-04-28 18:18 | 43.96065 | 12.50419 | 34999 ft | 466 kts | 118° |
| 2026-04-28 18:18 | 43.93536 | 12.57059 | 35000 ft | 466 kts | 118° |
| 2026-04-28 18:19 | 43.89999 | 12.66311 | 34996 ft | 465 kts | 118° |
| 2026-04-28 18:19 | 43.86962 | 12.74249 | 35003 ft | 465 kts | 118° |
| 2026-04-28 18:20 | 43.83939 | 12.82122 | 35018 ft | 464 kts | 118° |
| 2026-04-28 18:20 | 43.80891 | 12.90031 | 35018 ft | 464 kts | 118° |
| 2026-04-28 18:21 | 43.77861 | 12.97891 | 35026 ft | 464 kts | 118° |
| 2026-04-28 18:21 | 43.74805 | 13.05765 | 35029 ft | 464 kts | 119° |
| 2026-04-28 18:22 | 43.71737 | 13.13643 | 35036 ft | 464 kts | 118° |
| 2026-04-28 18:22 | 43.68687 | 13.21477 | 35030 ft | 464 kts | 119° |
| 2026-04-28 18:23 | 43.65616 | 13.29341 | 35029 ft | 464 kts | 119° |
| 2026-04-28 18:23 | 43.62564 | 13.37143 | 35023 ft | 463 kts | 119° |
| 2026-04-28 18:24 | 43.59664 | 13.43419 | 35024 ft | 461 kts | 131° |
| 2026-04-28 18:24 | 43.56631 | 13.47500 | 35024 ft | 458 kts | 144° |
| 2026-04-28 18:24 | 43.53995 | 13.49941 | 35031 ft | 455 kts | 154° |
| 2026-04-28 18:25 | 43.48277 | 13.53647 | 35025 ft | 453 kts | 158° |
| 2026-04-28 18:26 | 43.39693 | 13.59058 | 35017 ft | 454 kts | 158° |
| 2026-04-28 18:26 | 43.33933 | 13.62665 | 35020 ft | 454 kts | 158° |
| 2026-04-28 18:27 | 43.28181 | 13.66266 | 35030 ft | 454 kts | 158° |
| 2026-04-28 18:27 | 43.22430 | 13.69864 | 35024 ft | 454 kts | 158° |
| 2026-04-28 18:28 | 43.16709 | 13.73450 | 35033 ft | 454 kts | 158° |
| 2026-04-28 18:28 | 43.10949 | 13.77042 | 35034 ft | 454 kts | 158° |
| 2026-04-28 18:29 | 43.05195 | 13.80610 | 35035 ft | 453 kts | 158° |
| 2026-04-28 18:29 | 42.99472 | 13.84156 | 35034 ft | 453 kts | 158° |
| 2026-04-28 18:30 | 42.93743 | 13.87706 | 35040 ft | 453 kts | 158° |
| 2026-04-28 18:30 | 42.87985 | 13.91262 | 35044 ft | 453 kts | 159° |
| 2026-04-28 18:31 | 42.82226 | 13.94809 | 35042 ft | 453 kts | 158° |
| 2026-04-28 18:31 | 42.76506 | 13.98330 | 35026 ft | 453 kts | 158° |
| 2026-04-28 18:32 | 42.70750 | 14.01858 | 35036 ft | 452 kts | 158° |
| 2026-04-28 18:32 | 42.65013 | 14.05369 | 35040 ft | 452 kts | 158° |
| 2026-04-28 18:33 | 42.59283 | 14.08867 | 35052 ft | 452 kts | 158° |
| 2026-04-28 18:33 | 42.53542 | 14.12366 | 35053 ft | 452 kts | 158° |
| 2026-04-28 18:34 | 42.47800 | 14.15865 | 35054 ft | 452 kts | 156° |
| 2026-04-28 18:34 | 42.42621 | 14.20743 | 35053 ft | 457 kts | 136° |
| 2026-04-28 18:35 | 42.39256 | 14.26261 | 35049 ft | 459 kts | 127° |
| 2026-04-28 18:35 | 42.35438 | 14.33190 | 35042 ft | 459 kts | 127° |
| 2026-04-28 18:36 | 42.31594 | 14.40116 | 35023 ft | 459 kts | 127° |
| 2026-04-28 18:36 | 42.27777 | 14.46997 | 35027 ft | 459 kts | 127° |
| 2026-04-28 18:37 | 42.23934 | 14.53907 | 35024 ft | 459 kts | 127° |
| 2026-04-28 18:37 | 42.20100 | 14.60778 | 35025 ft | 459 kts | 128° |
| 2026-04-28 18:38 | 42.16247 | 14.67661 | 35025 ft | 459 kts | 128° |
| 2026-04-28 18:38 | 42.12391 | 14.74541 | 35028 ft | 459 kts | 128° |
| 2026-04-28 18:39 | 42.08528 | 14.81421 | 35030 ft | 459 kts | 128° |
| 2026-04-28 18:39 | 42.04660 | 14.88291 | 35008 ft | 459 kts | 128° |
| 2026-04-28 18:40 | 42.00818 | 14.95106 | 35008 ft | 459 kts | 128° |
| 2026-04-28 18:40 | 41.96949 | 15.01942 | 35014 ft | 459 kts | 128° |
| 2026-04-28 18:41 | 41.93073 | 15.08784 | 35016 ft | 459 kts | 128° |
| 2026-04-28 18:41 | 41.89198 | 15.15602 | 35020 ft | 459 kts | 128° |
| 2026-04-28 18:42 | 41.85345 | 15.22367 | 35021 ft | 459 kts | 128° |
| 2026-04-28 18:42 | 41.81453 | 15.29192 | 35026 ft | 459 kts | 128° |
| 2026-04-28 18:43 | 41.77562 | 15.35997 | 35026 ft | 459 kts | 128° |
| 2026-04-28 18:43 | 41.73674 | 15.42786 | 35025 ft | 459 kts | 129° |
| 2026-04-28 18:44 | 41.69807 | 15.49523 | 35025 ft | 459 kts | 129° |
| 2026-04-28 18:44 | 41.63949 | 15.59689 | 35027 ft | 459 kts | 129° |
| 2026-04-28 18:45 | 41.60041 | 15.66446 | 35031 ft | 459 kts | 129° |
| 2026-04-28 18:45 | 41.56133 | 15.73201 | 35030 ft | 459 kts | 129° |
| 2026-04-28 18:46 | 41.52223 | 15.79949 | 35030 ft | 459 kts | 129° |
| 2026-04-28 18:46 | 41.48302 | 15.86601 | 34802 ft | 455 kts | 131° |
| 2026-04-28 18:47 | 41.46259 | 15.89812 | 34557 ft | 452 kts | 132° |
| 2026-04-28 18:47 | 41.44192 | 15.92947 | 34323 ft | 449 kts | 133° |
| 2026-04-28 18:47 | 41.42110 | 15.96056 | 34090 ft | 446 kts | 133° |
| 2026-04-28 18:47 | 41.40052 | 15.99126 | 33813 ft | 444 kts | 132° |
| 2026-04-28 18:48 | 41.38001 | 16.02218 | 33547 ft | 443 kts | 132° |
| 2026-04-28 18:48 | 41.35978 | 16.05303 | 33303 ft | 441 kts | 131° |
| 2026-04-28 18:48 | 41.33971 | 16.08380 | 33025 ft | 437 kts | 131° |
| 2026-04-28 18:48 | 41.31999 | 16.11411 | 32749 ft | 429 kts | 131° |
| 2026-04-28 18:49 | 41.30064 | 16.14387 | 32483 ft | 422 kts | 131° |
| 2026-04-28 18:49 | 41.28774 | 16.16361 | 32312 ft | 428 kts | 131° |
| 2026-04-28 18:49 | 41.26169 | 16.20333 | 31967 ft | 430 kts | 131° |
| 2026-04-28 18:49 | 41.24195 | 16.23334 | 31709 ft | 428 kts | 131° |
| 2026-04-28 18:50 | 41.22239 | 16.26308 | 31457 ft | 426 kts | 131° |
| 2026-04-28 18:50 | 41.20292 | 16.29270 | 31211 ft | 424 kts | 131° |
| 2026-04-28 18:50 | 41.18359 | 16.32216 | 30959 ft | 422 kts | 131° |
| 2026-04-28 18:50 | 41.16431 | 16.35154 | 30724 ft | 420 kts | 131° |
| 2026-04-28 18:51 | 41.14533 | 16.38041 | 30480 ft | 419 kts | 131° |
| 2026-04-28 18:51 | 41.12617 | 16.40945 | 30237 ft | 417 kts | 131° |
| 2026-04-28 18:51 | 41.10709 | 16.43830 | 29977 ft | 415 kts | 131° |
| 2026-04-28 18:51 | 41.08801 | 16.46708 | 29691 ft | 413 kts | 131° |
| 2026-04-28 18:52 | 41.06908 | 16.49562 | 29412 ft | 411 kts | 131° |
| 2026-04-28 18:52 | 41.05018 | 16.52416 | 28816 ft | 412 kts | 131° |
| 2026-04-28 18:52 | 41.03118 | 16.55289 | 28084 ft | 415 kts | 131° |
| 2026-04-28 18:52 | 41.01203 | 16.58175 | 27372 ft | 418 kts | 131° |
| 2026-04-28 18:53 | 40.99277 | 16.61074 | 26679 ft | 420 kts | 131° |
| 2026-04-28 18:53 | 40.97343 | 16.63981 | 25999 ft | 421 kts | 131° |
| 2026-04-28 18:53 | 40.95402 | 16.66893 | 25281 ft | 423 kts | 131° |
| 2026-04-28 18:53 | 40.93440 | 16.69837 | 24442 ft | 428 kts | 131° |
| 2026-04-28 18:54 | 40.91460 | 16.72803 | 23603 ft | 432 kts | 131° |
| 2026-04-28 18:54 | 40.89459 | 16.75802 | 22625 ft | 436 kts | 131° |
| 2026-04-28 18:54 | 40.87440 | 16.78824 | 21681 ft | 440 kts | 131° |
| 2026-04-28 18:54 | 40.85411 | 16.81857 | 20764 ft | 443 kts | 132° |
| 2026-04-28 18:55 | 40.83407 | 16.84962 | 19870 ft | 445 kts | 126° |
| 2026-04-28 18:55 | 40.82318 | 16.87254 | 19299 ft | 446 kts | 117° |
| 2026-04-28 18:55 | 40.80944 | 16.92425 | 18140 ft | 447 kts | 103° |
| 2026-04-28 18:55 | 40.80232 | 16.96427 | 17185 ft | 447 kts | 103° |
| 2026-04-28 18:56 | 40.79516 | 17.00427 | 16277 ft | 447 kts | 103° |
| 2026-04-28 18:56 | 40.78803 | 17.04366 | 15384 ft | 446 kts | 103° |
| 2026-04-28 18:56 | 40.78082 | 17.08332 | 14780 ft | 440 kts | 103° |
| 2026-04-28 18:56 | 40.77378 | 17.12186 | 14531 ft | 424 kts | 103° |
| 2026-04-28 18:57 | 40.76697 | 17.15909 | 14290 ft | 410 kts | 103° |
| 2026-04-28 18:57 | 40.76038 | 17.19502 | 14048 ft | 398 kts | 103° |
| 2026-04-28 18:57 | 40.75395 | 17.23009 | 13804 ft | 386 kts | 103° |
| 2026-04-28 18:57 | 40.74770 | 17.26399 | 13541 ft | 375 kts | 103° |
| 2026-04-28 18:58 | 40.74166 | 17.29660 | 13270 ft | 364 kts | 103° |
| 2026-04-28 18:58 | 40.73564 | 17.32908 | 13002 ft | 355 kts | 103° |
| 2026-04-28 18:58 | 40.72987 | 17.36030 | 12742 ft | 346 kts | 103° |
| 2026-04-28 18:58 | 40.72428 | 17.39041 | 12485 ft | 337 kts | 103° |
| 2026-04-28 18:59 | 40.71875 | 17.42025 | 12232 ft | 330 kts | 103° |
| 2026-04-28 18:59 | 40.71336 | 17.44932 | 11978 ft | 323 kts | 103° |
| 2026-04-28 18:59 | 40.70871 | 17.47807 | 11726 ft | 316 kts | 96° |
| 2026-04-28 18:59 | 40.70587 | 17.50650 | 11478 ft | 310 kts | 97° |
| 2026-04-28 19:00 | 40.70298 | 17.53450 | 11228 ft | 307 kts | 97° |
| 2026-04-28 19:00 | 40.70008 | 17.56233 | 10982 ft | 306 kts | 97° |
| 2026-04-28 19:00 | 40.69717 | 17.59001 | 10738 ft | 304 kts | 97° |
| 2026-04-28 19:00 | 40.69429 | 17.61739 | 10495 ft | 302 kts | 96° |
| 2026-04-28 19:01 | 40.69138 | 17.64487 | 10245 ft | 301 kts | 96° |
| 2026-04-28 19:01 | 40.68850 | 17.67219 | 10028 ft | 300 kts | 97° |
| 2026-04-28 19:01 | 40.68569 | 17.69907 | 9857 ft | 297 kts | 97° |
| 2026-04-28 19:01 | 40.68283 | 17.72607 | 9724 ft | 296 kts | 96° |
| 2026-04-28 19:02 | 40.67997 | 17.75295 | 9592 ft | 296 kts | 97° |
| 2026-04-28 19:02 | 40.67710 | 17.77977 | 9454 ft | 295 kts | 97° |
| 2026-04-28 19:02 | 40.67422 | 17.80657 | 9332 ft | 294 kts | 97° |
| 2026-04-28 19:02 | 40.67134 | 17.83321 | 9203 ft | 293 kts | 97° |
| 2026-04-28 19:03 | 40.66855 | 17.85905 | 9069 ft | 283 kts | 97° |
| 2026-04-28 19:03 | 40.66582 | 17.88426 | 8940 ft | 272 kts | 96° |
| 2026-04-28 19:03 | 40.66322 | 17.90843 | 8810 ft | 261 kts | 97° |
| 2026-04-28 19:03 | 40.66018 | 17.93169 | 8682 ft | 251 kts | 105° |
| 2026-04-28 19:04 | 40.65350 | 17.95277 | 8300 ft | 255 kts | 121° |
| 2026-04-28 19:04 | 40.64234 | 17.97161 | 7613 ft | 267 kts | 136° |
| 2026-04-28 19:04 | 40.62807 | 17.98820 | 6925 ft | 279 kts | 139° |
| 2026-04-28 19:04 | 40.61346 | 18.00517 | 6464 ft | 280 kts | 138° |
| 2026-04-28 19:05 | 40.59898 | 18.02228 | 6043 ft | 277 kts | 138° |
| 2026-04-28 19:05 | 40.58489 | 18.03902 | 5675 ft | 274 kts | 137° |
| 2026-04-28 19:05 | 40.57085 | 18.05572 | 5315 ft | 270 kts | 137° |
| 2026-04-28 19:05 | 40.55699 | 18.07218 | 4948 ft | 262 kts | 137° |
| 2026-04-28 19:06 | 40.54392 | 18.08765 | 4608 ft | 248 kts | 138° |
| 2026-04-28 19:06 | 40.53541 | 18.09772 | 4386 ft | 239 kts | 138° |
| 2026-04-28 19:06 | 40.51954 | 18.11649 | 3973 ft | 223 kts | 138° |
| 2026-04-28 19:06 | 40.50829 | 18.12979 | 3681 ft | 212 kts | 138° |
| 2026-04-28 19:07 | 40.50107 | 18.13832 | 3492 ft | 209 kts | 138° |
| 2026-04-28 19:07 | 40.49034 | 18.15101 | 3391 ft | 210 kts | 138° |
| 2026-04-28 19:07 | 40.47917 | 18.16425 | 3349 ft | 219 kts | 137° |
| 2026-04-28 19:07 | 40.47023 | 18.18025 | 3294 ft | 219 kts | 107° |
| 2026-04-28 19:08 | 40.47021 | 18.20004 | 3245 ft | 222 kts | 71° |
| 2026-04-28 19:08 | 40.47952 | 18.21599 | 3199 ft | 226 kts | 32° |
| 2026-04-28 19:08 | 40.49456 | 18.22109 | 3143 ft | 228 kts | 353° |
| 2026-04-28 19:08 | 40.50877 | 18.21263 | 3090 ft | 228 kts | 313° |
| 2026-04-28 19:09 | 40.51580 | 18.19525 | 3046 ft | 213 kts | 283° |
| 2026-04-28 19:09 | 40.51994 | 18.17685 | 3003 ft | 206 kts | 285° |
| 2026-04-28 19:09 | 40.52403 | 18.15963 | 2981 ft | 189 kts | 285° |
| 2026-04-28 19:09 | 40.52781 | 18.14376 | 2920 ft | 175 kts | 285° |
| 2026-04-28 19:10 | 40.53128 | 18.12915 | 2862 ft | 161 kts | 285° |
| 2026-04-28 19:10 | 40.53457 | 18.11532 | 2828 ft | 156 kts | 285° |
| 2026-04-28 19:10 | 40.53813 | 18.10203 | 2791 ft | 154 kts | 295° |
| 2026-04-28 19:10 | 40.54387 | 18.09012 | 2752 ft | 153 kts | 307° |
| 2026-04-28 19:11 | 40.55081 | 18.07955 | 2628 ft | 152 kts | 312° |
| 2026-04-28 19:11 | 40.55817 | 18.06969 | 2557 ft | 154 kts | 314° |
| 2026-04-28 19:11 | 40.56583 | 18.05997 | 2405 ft | 152 kts | 316° |
| 2026-04-28 19:11 | 40.57357 | 18.05039 | 2219 ft | 152 kts | 316° |
| 2026-04-28 19:12 | 40.58130 | 18.04091 | 2029 ft | 151 kts | 316° |
| 2026-04-28 19:12 | 40.58895 | 18.03157 | 1831 ft | 149 kts | 315° |
| 2026-04-28 19:12 | 40.59657 | 18.02228 | 1640 ft | 149 kts | 315° |
| 2026-04-28 19:12 | 40.60413 | 18.01306 | 1432 ft | 147 kts | 314° |
| 2026-04-28 19:13 | 40.61164 | 18.00391 | 1242 ft | 146 kts | 314° |
| 2026-04-28 19:13 | 40.61911 | 17.99480 | 1054 ft | 147 kts | 314° |
| 2026-04-28 19:13 | 40.62657 | 17.98571 | 865 ft | 146 kts | 314° |
| 2026-04-28 19:13 | 40.63389 | 17.97679 | 684 ft | 144 kts | 314° |
| 2026-04-28 19:14 | 40.64119 | 17.96788 | 500 ft | 142 kts | 315° |
| 2026-04-28 19:14 | 40.64841 | 17.95907 | 311 ft | 141 kts | 314° |
| 2026-04-28 19:14 | 40.65560 | 17.95029 | 119 ft | 140 kts | 313° |
| 2026-04-28 19:14 | 40.66241 | 17.94177 | 41 ft | 116 kts | 314° |
| 2026-04-28 19:15 | 40.66647 | 17.93699 | 40 ft | 35 kts | 318° |
| 2026-04-28 19:15 | 40.66759 | 17.93662 | 39 ft | 15 kts | 39° |
| 2026-04-28 19:15 | 40.66788 | 17.93698 | 42 ft | 0 kts | 44° |
| 2026-04-28 19:16 | 40.66795 | 17.93707 | 43 ft | 4 kts | 44° |
| 2026-04-28 19:16 | 40.66817 | 17.93741 | 43 ft | 11 kts | 59° |
| 2026-04-28 19:16 | 40.66792 | 17.93821 | 43 ft | 9 kts | 137° |
| 2026-04-28 19:17 | 40.66748 | 17.93874 | 44 ft | 8 kts | 137° |
| 2026-04-28 19:17 | 40.66712 | 17.93918 | 44 ft | 7 kts | 137° |
| 2026-04-28 19:17 | 40.66644 | 17.94002 | 44 ft | 21 kts | 136° |
| 2026-04-28 19:17 | 40.66531 | 17.94144 | 44 ft | 23 kts | 137° |
| 2026-04-28 19:18 | 40.66404 | 17.94293 | 44 ft | 25 kts | 139° |
| 2026-04-28 19:18 | 40.66271 | 17.94454 | 44 ft | 27 kts | 136° |
| 2026-04-28 19:18 | 40.66131 | 17.94623 | 44 ft | 28 kts | 138° |
| 2026-04-28 19:18 | 40.66109 | 17.94650 | 44 ft | 1 kts | 138° |
| 2026-04-28 19:19 | 40.66051 | 17.94698 | 43 ft | 15 kts | 173° |
| 2026-04-28 19:19 | 40.65973 | 17.94600 | 40 ft | 18 kts | 235° |
| 2026-04-28 19:19 | 40.65888 | 17.94463 | 42 ft | 19 kts | 230° |
| 2026-04-28 19:19 | 40.65807 | 17.94322 | 43 ft | 20 kts | 233° |
| 2026-04-28 19:20 | 40.65721 | 17.94173 | 44 ft | 21 kts | 233° |
| 2026-04-28 19:20 | 40.65656 | 17.94044 | 44 ft | 11 kts | 270° |
| 2026-04-28 19:20 | 40.65688 | 17.94017 | 44 ft | 4 kts | 334° |
| 2026-04-28 19:20 | 40.65710 | 17.93996 | 44 ft | 3 kts | 323° |
| 2026-04-28 19:21 | 40.65727 | 17.93979 | 44 ft | 3 kts | 320° |
| 2026-04-28 19:21 | 40.65732 | 17.93973 | 44 ft | 0 kts | 321° |